createdAt,value
2018-07-13T00:02:28.435Z,14.08
2018-07-13T00:04:57.639Z,14.04
2018-07-13T00:07:26.859Z,13.96
2018-07-13T00:09:56.232Z,13.85
2018-07-13T00:12:25.494Z,13.83
2018-07-13T00:15:04.955Z,13.83
2018-07-13T00:17:34.167Z,13.86
2018-07-13T00:20:03.786Z,13.84
2018-07-13T00:22:33.903Z,13.81
2018-07-13T00:25:03.122Z,13.81
2018-07-13T00:27:32.727Z,13.80
2018-07-13T00:30:02.020Z,13.85
2018-07-13T00:32:31.218Z,13.86
2018-07-13T00:35:00.487Z,13.82
2018-07-13T00:37:29.939Z,13.82
2018-07-13T00:39:59.503Z,13.74
2018-07-13T00:42:29.091Z,13.67
2018-07-13T00:44:58.506Z,13.63
2018-07-13T00:47:28.458Z,13.65
2018-07-13T00:49:57.647Z,13.60
2018-07-13T00:52:27.059Z,13.49
2018-07-13T00:54:56.263Z,13.48
2018-07-13T00:57:25.763Z,13.52
2018-07-13T00:59:55.995Z,13.54
2018-07-13T01:02:25.232Z,13.51
2018-07-13T01:04:54.419Z,13.24
2018-07-13T01:07:23.877Z,13.33
2018-07-13T01:09:53.064Z,13.29
2018-07-13T01:12:22.298Z,13.18
2018-07-13T01:14:51.573Z,13.08
2018-07-13T01:17:23.516Z,13.19
2018-07-13T01:19:53.697Z,13.04
2018-07-13T01:22:23.222Z,13.01
2018-07-13T01:24:53.039Z,13.02
2018-07-13T01:27:22.288Z,13.15
2018-07-13T01:29:51.664Z,13.11
2018-07-13T01:32:20.871Z,13.17
2018-07-13T01:34:50.075Z,13.18
2018-07-13T01:37:19.295Z,13.10
2018-07-13T01:39:48.630Z,13.16
2018-07-13T01:42:18.246Z,13.18
2018-07-13T01:44:47.890Z,13.14
2018-07-13T01:47:17.192Z,13.02
2018-07-13T01:49:46.686Z,12.93
2018-07-13T01:52:16.114Z,12.82
2018-07-13T01:54:45.307Z,12.79
2018-07-13T01:57:14.523Z,12.81
2018-07-13T01:59:43.735Z,12.77
2018-07-13T02:02:12.955Z,12.77
2018-07-13T02:04:42.170Z,12.69
2018-07-13T02:07:11.802Z,12.64
2018-07-13T02:09:41.000Z,12.60
2018-07-13T02:12:10.239Z,12.62
2018-07-13T02:14:39.651Z,12.58
2018-07-13T02:17:09.195Z,12.46
2018-07-13T02:19:38.407Z,12.46
2018-07-13T02:22:07.930Z,12.44
2018-07-13T02:24:37.211Z,12.50
2018-07-13T02:27:06.491Z,12.48
2018-07-13T02:29:35.744Z,12.53
2018-07-13T02:32:05.000Z,12.53
2018-07-13T02:34:34.251Z,12.53
2018-07-13T02:37:03.479Z,12.57
2018-07-13T02:39:32.763Z,12.53
2018-07-13T02:42:01.997Z,12.38
2018-07-13T02:44:31.363Z,12.36
2018-07-13T02:47:00.589Z,12.33
2018-07-13T02:49:29.779Z,12.25
2018-07-13T02:51:58.970Z,12.22
2018-07-13T02:54:28.603Z,12.21
2018-07-13T02:56:57.811Z,12.18
2018-07-13T02:59:27.009Z,12.18
2018-07-13T03:01:56.211Z,12.15
2018-07-13T03:04:25.903Z,12.07
2018-07-13T03:06:55.872Z,12.15
2018-07-13T03:09:39.132Z,12.16
2018-07-13T03:12:09.487Z,12.20
2018-07-13T03:14:38.996Z,12.14
2018-07-13T03:17:08.245Z,12.11
2018-07-13T03:19:37.615Z,12.11
2018-07-13T03:22:06.921Z,12.18
2018-07-13T03:24:36.095Z,12.12
2018-07-13T03:27:05.651Z,12.19
2018-07-13T03:29:34.924Z,12.20
2018-07-13T03:32:04.613Z,12.20
2018-07-13T03:34:33.786Z,12.25
2018-07-13T03:37:03.147Z,12.25
2018-07-13T03:39:32.347Z,12.27
2018-07-13T03:42:01.643Z,12.30
2018-07-13T03:44:30.840Z,12.30
2018-07-13T03:47:00.143Z,12.36
2018-07-13T03:49:29.347Z,12.33
2018-07-13T03:51:58.619Z,12.39
2018-07-13T03:54:28.071Z,12.47
2018-07-13T03:56:57.771Z,12.46
2018-07-13T03:59:27.904Z,12.50
2018-07-13T04:01:57.228Z,12.57
2018-07-13T04:04:26.636Z,12.57
2018-07-13T04:06:55.841Z,12.57
2018-07-13T04:09:25.211Z,12.59
2018-07-13T04:11:54.671Z,12.57
2018-07-13T04:14:23.868Z,12.59
2018-07-13T04:16:53.067Z,12.63
2018-07-13T04:19:22.320Z,12.68
2018-07-13T04:21:51.552Z,12.80
2018-07-13T04:24:20.779Z,12.83
2018-07-13T04:26:50.035Z,12.92
2018-07-13T04:29:19.639Z,13.01
2018-07-13T04:31:49.055Z,13.03
2018-07-13T04:34:18.292Z,13.06
2018-07-13T04:36:47.479Z,13.11
2018-07-13T04:39:16.703Z,13.22
2018-07-13T04:41:46.210Z,13.24
2018-07-13T04:44:15.675Z,13.27
2018-07-13T04:46:44.923Z,13.28
2018-07-13T04:49:14.248Z,13.41
2018-07-13T04:51:43.494Z,13.49
2018-07-13T04:54:12.774Z,13.59
2018-07-13T04:56:42.315Z,13.79
2018-07-13T04:59:11.581Z,13.91
2018-07-13T05:01:41.382Z,13.98
2018-07-13T05:04:10.623Z,14.16
2018-07-13T05:06:40.130Z,14.28
2018-07-13T05:09:09.709Z,14.23
2018-07-13T05:11:39.039Z,14.43
2018-07-13T05:14:08.312Z,14.70
2018-07-13T05:16:37.751Z,14.90
2018-07-13T05:19:07.008Z,15.20
2018-07-13T05:21:36.255Z,15.50
2018-07-13T05:24:05.555Z,15.58
2018-07-13T05:26:35.225Z,15.74
2018-07-13T05:29:04.971Z,15.83
2018-07-13T05:31:34.234Z,16.08
2018-07-13T05:34:03.483Z,16.48
2018-07-13T05:36:32.715Z,16.92
2018-07-13T05:39:02.379Z,16.61
2018-07-13T05:41:31.629Z,16.85
2018-07-13T05:44:01.372Z,17.00
2018-07-13T05:46:31.335Z,17.35
2018-07-13T05:49:00.600Z,17.66
2018-07-13T05:51:29.846Z,17.80
2018-07-13T05:53:59.119Z,17.82
2018-07-13T05:56:28.392Z,17.79
2018-07-13T05:58:57.651Z,18.20
2018-07-13T06:01:26.895Z,18.65
2018-07-13T06:03:56.842Z,18.92
2018-07-13T06:06:26.115Z,18.98
2018-07-13T06:08:55.398Z,18.85
2018-07-13T06:11:24.903Z,19.12
2018-07-13T06:13:54.243Z,19.17
2018-07-13T06:16:23.855Z,19.41
2018-07-13T06:18:53.359Z,19.15
2018-07-13T06:21:22.663Z,19.45
2018-07-13T06:23:51.867Z,19.54
2018-07-13T06:26:21.096Z,20.89
2018-07-13T06:28:50.315Z,21.89
2018-07-13T06:31:19.648Z,22.20
2018-07-13T06:33:48.859Z,22.88
2018-07-13T06:36:18.399Z,23.60
2018-07-13T06:38:48.007Z,24.68
2018-07-13T06:41:17.235Z,24.38
2018-07-13T06:43:46.479Z,23.94
2018-07-13T06:46:15.787Z,24.53
2018-07-13T06:48:45.035Z,24.45
2018-07-13T06:51:14.386Z,25.04
2018-07-13T06:53:44.861Z,24.77
2018-07-13T06:56:14.208Z,26.14
2018-07-13T06:58:54.659Z,26.62
2018-07-13T07:01:23.903Z,27.22
2018-07-13T07:04:40.672Z,27.31
2018-07-13T07:07:11.771Z,27.46
2018-07-13T07:09:41.908Z,27.84
2018-07-13T07:14:30.967Z,27.83
2018-07-13T07:17:00.155Z,27.77
2018-07-13T07:19:29.351Z,29.34
2018-07-13T07:21:58.663Z,29.58
2018-07-13T07:24:28.157Z,31.07
2018-07-13T07:26:57.328Z,31.43
2018-07-13T07:29:26.920Z,30.61
2018-07-13T07:31:56.145Z,31.60
2018-07-13T07:34:25.463Z,31.10
2018-07-13T07:36:54.791Z,32.43
2018-07-13T07:39:24.177Z,31.82
2018-07-13T07:41:53.519Z,33.27
2018-07-13T07:44:22.983Z,33.06
2018-07-13T07:46:52.212Z,32.75
2018-07-13T07:49:21.701Z,33.22
2018-07-13T07:51:50.931Z,32.91
2018-07-13T07:54:20.146Z,31.99
2018-07-13T07:56:49.348Z,31.65
2018-07-13T07:59:19.113Z,30.07
2018-07-13T08:01:48.797Z,29.83
2018-07-13T08:04:17.914Z,29.46
2018-07-13T08:06:47.360Z,29.41
2018-07-13T08:09:16.753Z,29.09
2018-07-13T08:11:46.176Z,29.88
2018-07-13T08:14:15.943Z,29.40
2018-07-13T08:16:45.118Z,30.74
2018-07-13T08:19:14.350Z,31.73
2018-07-13T08:21:44.752Z,32.48
2018-07-13T08:24:18.439Z,32.58
2018-07-13T08:26:47.974Z,32.57
2018-07-13T08:29:19.715Z,32.52
2018-07-13T08:31:50.439Z,31.98
2018-07-13T08:34:19.627Z,31.89
2018-07-13T08:36:48.879Z,31.47
2018-07-13T08:39:18.083Z,33.01
2018-07-13T08:41:47.921Z,33.79
2018-07-13T08:44:17.284Z,31.81
2018-07-13T08:46:46.487Z,32.35
2018-07-13T08:49:15.691Z,32.67
2018-07-13T08:51:45.201Z,33.68
2018-07-13T08:54:14.592Z,33.48
2018-07-13T08:56:44.064Z,35.12
2018-07-13T08:59:13.298Z,36.33
2018-07-13T09:01:42.564Z,35.40
2018-07-13T09:04:11.906Z,36.45
2018-07-13T09:06:41.582Z,34.30
2018-07-13T09:09:14.131Z,35.34
2018-07-13T09:11:44.607Z,36.28
2018-07-13T09:14:13.876Z,36.08
2018-07-13T09:16:43.100Z,35.81
2018-07-13T09:19:12.929Z,34.71
2018-07-13T09:21:42.135Z,35.74
2018-07-13T09:24:12.351Z,35.95
2018-07-13T09:26:41.467Z,35.77
2018-07-13T09:32:43.251Z,35.57
2018-07-13T09:35:12.424Z,37.36
2018-07-13T09:37:41.651Z,36.19
2018-07-13T09:40:10.894Z,36.96
2018-07-13T09:42:40.103Z,37.76
2018-07-13T09:45:09.310Z,36.59
2018-07-13T09:47:38.525Z,38.06
2018-07-13T09:50:07.757Z,37.56
2018-07-13T09:52:36.954Z,37.00
2018-07-13T09:55:06.283Z,35.70
2018-07-13T09:57:35.464Z,34.51
2018-07-13T10:00:04.736Z,34.75
2018-07-13T10:02:33.960Z,35.02
2018-07-13T10:05:03.188Z,36.10
2018-07-13T10:07:32.406Z,35.93
2018-07-13T10:10:01.601Z,37.67
2018-07-13T10:12:30.955Z,37.38
2018-07-13T10:15:00.195Z,38.51
2018-07-13T10:17:29.407Z,38.53
2018-07-13T10:19:58.968Z,38.94
2018-07-13T10:22:29.539Z,38.87
2018-07-13T10:25:01.183Z,38.24
2018-07-13T10:27:32.828Z,36.34
2018-07-13T10:30:04.105Z,36.64
2018-07-13T10:32:33.707Z,36.46
2018-07-13T10:35:04.507Z,36.44
2018-07-13T10:37:33.860Z,33.63
2018-07-13T10:40:03.432Z,33.01
2018-07-13T10:42:33.144Z,33.64
2018-07-13T10:45:02.379Z,31.81
2018-07-13T10:47:31.606Z,30.89
2018-07-13T10:50:00.852Z,30.14
2018-07-13T10:52:30.304Z,30.00
2018-07-13T10:54:59.566Z,29.52
2018-07-13T10:57:28.763Z,29.37
2018-07-13T10:59:57.948Z,30.55
2018-07-13T11:02:27.132Z,33.10
2018-07-13T11:04:56.303Z,35.38
2018-07-13T11:07:25.481Z,35.42
2018-07-13T11:09:54.646Z,36.33
2018-07-13T11:12:23.839Z,37.00
2018-07-13T11:14:53.231Z,39.20
2018-07-13T11:17:22.411Z,41.06
2018-07-13T11:19:51.576Z,41.52
2018-07-13T11:22:20.780Z,39.73
2018-07-13T11:24:50.205Z,40.10
2018-07-13T11:27:19.400Z,38.06
2018-07-13T11:29:48.917Z,38.85
2018-07-13T11:32:18.035Z,36.48
2018-07-13T11:34:47.191Z,36.11
2018-07-13T11:37:16.444Z,36.07
2018-07-13T11:39:45.960Z,35.61
2018-07-13T11:42:15.216Z,37.34
2018-07-13T11:44:44.372Z,38.90
2018-07-13T11:47:13.567Z,39.63
2018-07-13T11:49:42.789Z,38.36
2018-07-13T11:52:12.372Z,38.98
2018-07-13T11:54:41.472Z,39.05
2018-07-13T11:57:10.884Z,39.04
2018-07-13T11:59:40.257Z,36.94
2018-07-13T12:02:09.427Z,33.96
2018-07-13T12:04:38.808Z,32.56
2018-07-13T12:07:08.359Z,32.50
2018-07-13T12:09:37.556Z,32.36
2018-07-13T12:12:06.760Z,32.40
2018-07-13T12:14:36.235Z,31.50
2018-07-13T12:17:05.695Z,32.13
2018-07-13T12:19:34.884Z,32.09
2018-07-13T12:22:04.143Z,32.51
2018-07-13T12:24:33.323Z,31.94
2018-07-13T12:27:02.850Z,31.45
2018-07-13T12:29:31.927Z,31.24
2018-07-13T12:32:01.747Z,30.65
2018-07-13T12:34:30.939Z,30.18
2018-07-13T12:37:00.852Z,30.07
2018-07-13T12:39:30.054Z,29.93
2018-07-13T12:41:59.183Z,29.40
2018-07-13T12:44:28.347Z,29.17
2018-07-13T12:46:57.539Z,29.72
2018-07-13T12:49:26.819Z,29.25
2018-07-13T12:51:56.728Z,29.60
2018-07-13T12:54:26.033Z,30.00
2018-07-13T12:56:55.599Z,29.75
2018-07-13T12:59:24.804Z,29.86
2018-07-13T13:01:54.539Z,29.70
2018-07-13T13:04:23.722Z,29.82
2018-07-13T13:06:52.915Z,29.86
2018-07-13T13:09:22.208Z,29.88
2018-07-13T13:11:51.412Z,29.53
2018-07-13T13:14:20.597Z,30.42
2018-07-13T13:16:49.797Z,30.24
2018-07-13T13:19:19.364Z,30.15
2018-07-13T13:21:48.911Z,29.91
2018-07-13T13:24:18.103Z,29.45
2018-07-13T13:26:47.279Z,29.80
2018-07-13T13:29:16.436Z,29.48
2018-07-13T13:31:45.615Z,29.01
2018-07-13T13:34:15.408Z,29.52
2018-07-13T13:36:44.588Z,28.56
2018-07-13T13:39:13.759Z,28.95
2018-07-13T13:41:42.959Z,29.11
2018-07-13T13:44:12.132Z,28.05
2018-07-13T13:46:41.375Z,28.17
2018-07-13T13:49:10.556Z,27.92
2018-07-13T13:51:39.748Z,28.03
2018-07-13T13:54:08.951Z,28.10
2018-07-13T13:56:38.401Z,27.15
2018-07-13T13:59:08.451Z,27.11
2018-07-13T14:01:37.935Z,26.49
2018-07-13T14:04:07.435Z,26.87
2018-07-13T14:06:37.699Z,27.12
2018-07-13T14:09:07.832Z,27.51
2018-07-13T14:11:36.935Z,27.70
2018-07-13T14:14:06.476Z,27.95
2018-07-13T14:16:36.322Z,27.89
2018-07-13T14:19:05.524Z,28.13
2018-07-13T14:21:34.640Z,28.17
2018-07-13T14:24:03.875Z,28.06
2018-07-13T14:26:33.045Z,28.06
2018-07-13T14:29:02.269Z,27.66
2018-07-13T14:31:31.465Z,28.00
2018-07-13T14:34:00.651Z,27.66
2018-07-13T14:36:29.826Z,27.77
2018-07-13T14:38:59.548Z,27.53
2018-07-13T14:41:28.840Z,27.12
2018-07-13T14:43:58.057Z,26.66
2018-07-13T14:46:27.223Z,26.57
2018-07-13T14:48:56.384Z,26.81
2018-07-13T14:51:25.544Z,27.52
2018-07-13T14:53:54.993Z,27.20
2018-07-13T14:56:24.151Z,27.69
2018-07-13T14:58:53.331Z,27.75
2018-07-13T15:01:22.515Z,28.02
2018-07-13T15:03:51.848Z,28.50
2018-07-13T15:06:21.063Z,28.53
2018-07-13T15:08:50.279Z,28.30
2018-07-13T15:11:19.484Z,27.61
2018-07-13T15:13:48.741Z,27.43
2018-07-13T15:16:17.922Z,27.02
2018-07-13T15:18:47.335Z,26.86
2018-07-13T15:21:16.795Z,27.05
2018-07-13T15:23:46.679Z,27.05
2018-07-13T15:26:15.860Z,27.06
2018-07-13T15:28:45.071Z,26.62
2018-07-13T15:31:14.515Z,26.74
2018-07-13T15:33:43.751Z,26.68
2018-07-13T15:36:12.965Z,26.82
2018-07-13T15:38:42.172Z,26.67
2018-07-13T15:41:11.483Z,26.28
2018-07-13T15:43:41.100Z,26.08
2018-07-13T15:46:10.999Z,25.91
2018-07-13T15:48:40.267Z,25.63
2018-07-13T15:51:09.421Z,25.64
2018-07-13T15:53:38.618Z,25.65
2018-07-13T15:56:07.907Z,25.74
2018-07-13T15:58:37.143Z,25.78
2018-07-13T16:01:06.671Z,25.69
2018-07-13T16:03:38.366Z,25.55
2018-07-13T16:06:08.219Z,25.75
2018-07-13T16:08:38.348Z,25.53
2018-07-13T16:11:07.713Z,25.40
2018-07-13T16:13:37.499Z,25.54
2018-07-13T16:16:07.143Z,25.71
2018-07-13T16:18:37.421Z,25.63
2018-07-13T16:21:08.121Z,25.73
2018-07-13T16:23:38.724Z,25.65
2018-07-13T16:26:08.455Z,25.69
2018-07-13T16:28:38.959Z,25.73
2018-07-13T16:31:08.278Z,25.53
2018-07-13T16:33:39.128Z,25.56
2018-07-13T16:36:08.715Z,25.71
2018-07-13T16:38:39.151Z,25.63
2018-07-13T16:41:08.668Z,25.82
2018-07-13T16:43:37.851Z,25.76
2018-07-13T16:46:07.955Z,25.80
2018-07-13T16:48:37.337Z,25.97
2018-07-13T16:51:06.828Z,26.26
2018-07-13T16:53:36.499Z,26.11
2018-07-13T16:56:05.932Z,26.10
2018-07-13T16:58:36.011Z,25.83
2018-07-13T17:01:05.543Z,25.89
2018-07-13T17:03:34.766Z,25.78
2018-07-13T17:06:03.920Z,25.46
2018-07-13T17:08:33.103Z,25.22
2018-07-13T17:11:02.295Z,24.91
2018-07-13T17:13:31.495Z,25.00
2018-07-13T17:16:02.747Z,24.96
2018-07-13T17:18:33.107Z,24.95
2018-07-13T17:21:02.959Z,25.06
2018-07-13T17:23:32.618Z,24.81
2018-07-13T17:26:02.084Z,24.78
2018-07-13T17:28:31.773Z,24.71
2018-07-13T17:31:01.652Z,24.68
2018-07-13T17:33:31.587Z,24.67
2018-07-13T17:36:01.287Z,24.63
2018-07-13T17:38:31.807Z,24.61
2018-07-13T17:41:02.300Z,24.49
2018-07-13T17:43:31.535Z,24.46
2018-07-13T17:46:01.761Z,24.31
2018-07-13T17:48:32.463Z,24.63
2018-07-13T17:51:02.321Z,24.54
2018-07-13T17:53:31.548Z,24.63
2018-07-13T17:56:00.716Z,24.47
2018-07-13T17:58:29.899Z,24.43
2018-07-13T18:01:00.152Z,24.17
2018-07-13T18:03:31.007Z,24.19
2018-07-13T18:06:01.543Z,24.12
2018-07-13T18:08:32.464Z,24.16
2018-07-13T18:11:04.226Z,24.40
2018-07-13T18:13:34.623Z,24.43
2018-07-13T18:16:05.875Z,24.27
2018-07-13T18:18:36.005Z,24.17
2018-07-13T18:21:07.258Z,24.16
2018-07-13T18:23:38.081Z,23.98
2018-07-13T18:26:08.514Z,23.95
2018-07-13T18:28:40.070Z,23.79
2018-07-13T18:31:11.152Z,23.67
2018-07-13T18:33:41.400Z,23.39
2018-07-13T18:36:12.406Z,23.41
2018-07-13T18:38:43.559Z,23.47
2018-07-13T18:41:14.784Z,23.22
2018-07-13T18:43:46.410Z,23.18
2018-07-13T18:46:16.524Z,22.97
2018-07-13T18:48:46.890Z,22.81
2018-07-13T18:51:16.299Z,22.65
2018-07-13T18:53:45.609Z,22.52
2018-07-13T18:56:14.795Z,22.41
2018-07-13T18:58:46.243Z,22.20
2018-07-13T19:01:16.407Z,22.03
2018-07-13T19:03:46.914Z,21.90
2018-07-13T19:06:17.974Z,21.72
2018-07-13T19:08:49.081Z,21.45
2018-07-13T19:11:18.723Z,21.23
2018-07-13T19:13:49.213Z,20.86
2018-07-13T19:16:19.714Z,20.63
2018-07-13T19:18:50.194Z,20.49
2018-07-13T19:21:21.419Z,20.25
2018-07-13T19:23:50.906Z,20.07
2018-07-13T19:26:20.904Z,19.89
2018-07-13T19:28:50.883Z,19.63
2018-07-13T19:31:20.132Z,19.41
2018-07-13T19:33:50.589Z,19.16
2018-07-13T19:36:20.484Z,18.98
2018-07-13T19:38:50.746Z,18.95
2018-07-13T19:41:21.611Z,18.90
2018-07-13T19:43:51.550Z,18.71
2018-07-13T19:46:21.198Z,18.69
2018-07-13T19:48:51.646Z,18.46
2018-07-13T19:51:22.385Z,18.31
2018-07-13T19:53:52.989Z,18.13
2018-07-13T19:56:22.599Z,17.94
2018-07-13T19:58:52.114Z,17.71
2018-07-13T20:01:21.403Z,17.56
2018-07-13T20:03:52.372Z,17.43
2018-07-13T20:06:21.660Z,17.30
2018-07-13T20:08:51.141Z,17.18
2018-07-13T20:11:20.384Z,17.11
2018-07-13T20:13:49.625Z,17.08
2018-07-13T20:16:19.162Z,17.05
2018-07-13T20:18:49.275Z,17.01
2018-07-13T20:21:18.515Z,16.84
2018-07-13T20:23:47.747Z,16.80
2018-07-13T20:26:17.094Z,16.75
2018-07-13T20:28:46.484Z,16.73
2018-07-13T20:31:16.409Z,16.60
2018-07-13T20:33:45.667Z,16.49
2018-07-13T20:36:15.323Z,16.47
2018-07-13T20:38:45.615Z,16.46
2018-07-13T20:41:16.096Z,16.37
2018-07-13T20:43:46.289Z,16.23
2018-07-13T20:46:16.443Z,16.19
2018-07-13T20:48:46.303Z,16.18
2018-07-13T20:51:17.031Z,16.09
2018-07-13T20:53:47.421Z,16.09
2018-07-13T20:56:18.520Z,15.94
2018-07-13T20:58:49.150Z,15.99
2018-07-13T21:01:19.197Z,15.82
2018-07-13T21:03:49.726Z,15.83
2018-07-13T21:06:20.044Z,15.78
2018-07-13T21:08:49.774Z,15.72
2018-07-13T21:11:25.494Z,15.85
2018-07-13T21:13:56.391Z,15.75
2018-07-13T21:16:27.032Z,15.62
2018-07-13T21:18:57.079Z,15.67
2018-07-13T21:21:26.900Z,15.50
2018-07-13T21:23:57.588Z,15.37
2018-07-13T21:26:27.317Z,15.40
2018-07-13T21:28:57.279Z,15.37
2018-07-13T21:31:27.955Z,15.40
2018-07-13T21:33:58.935Z,15.36
2018-07-13T21:36:28.420Z,15.34
2018-07-13T21:38:57.963Z,15.29
2018-07-13T21:41:27.403Z,15.33
2018-07-13T21:43:56.674Z,15.33
2018-07-13T21:46:25.923Z,15.22
2018-07-13T21:48:55.128Z,15.11
2018-07-13T21:51:24.696Z,15.09
2018-07-13T21:53:54.150Z,15.10
2018-07-13T21:56:23.384Z,15.03
2018-07-13T21:58:53.164Z,14.98
2018-07-13T22:01:22.407Z,14.96
2018-07-13T22:03:51.807Z,14.92
2018-07-13T22:06:21.020Z,14.90
2018-07-13T22:08:50.212Z,14.90
2018-07-13T22:11:19.751Z,14.92
2018-07-13T22:13:49.272Z,14.88
2018-07-13T22:16:19.083Z,14.95
2018-07-13T22:18:49.059Z,14.95
2018-07-13T22:21:19.799Z,14.98
2018-07-13T22:23:50.963Z,15.04
2018-07-13T22:26:20.801Z,15.08
2018-07-13T22:28:51.030Z,15.07
2018-07-13T22:31:22.300Z,15.04
2018-07-13T22:33:53.768Z,15.04
2018-07-13T22:36:24.013Z,14.99
2018-07-13T22:38:54.258Z,14.95
2018-07-13T22:41:24.364Z,14.83
2018-07-13T22:43:55.652Z,14.74
2018-07-13T22:46:26.651Z,14.70
2018-07-13T22:48:57.745Z,14.64
2018-07-13T22:51:28.454Z,14.70
2018-07-13T22:54:02.549Z,14.64
2018-07-13T22:56:32.112Z,14.48
2018-07-13T22:59:02.333Z,14.48
2018-07-13T23:01:32.921Z,14.48
2018-07-13T23:04:04.244Z,14.53
2018-07-13T23:06:34.449Z,14.55
2018-07-13T23:09:04.619Z,14.62
2018-07-13T23:11:33.847Z,14.61
2018-07-13T23:14:03.511Z,14.58
2018-07-13T23:16:32.761Z,14.58
2018-07-13T23:19:01.962Z,14.56
2018-07-13T23:21:31.559Z,14.52
2018-07-13T23:24:00.736Z,14.57
2018-07-13T23:26:29.983Z,14.51
2018-07-13T23:28:59.512Z,14.54
2018-07-13T23:31:29.011Z,14.62
2018-07-13T23:33:58.207Z,14.62
2018-07-13T23:36:27.768Z,14.67
2018-07-13T23:38:56.985Z,14.75
2018-07-13T23:41:27.007Z,14.89
2018-07-13T23:43:56.231Z,15.02
2018-07-13T23:46:25.800Z,15.16
2018-07-13T23:48:55.021Z,15.42
2018-07-13T23:51:24.255Z,15.59
2018-07-13T23:53:53.755Z,15.75
2018-07-13T23:56:23.342Z,15.90
2018-07-13T23:58:52.638Z,16.04
